createdAt,value
2022-08-05T00:00:50.890Z,4.13
2022-08-05T00:03:25.265Z,3.80
2022-08-05T00:08:49.813Z,5.23
2022-08-05T00:11:35.081Z,3.90
2022-08-05T00:14:21.145Z,4.93
2022-08-05T00:17:33.904Z,3.80
2022-08-05T00:20:10.844Z,3.80
2022-08-05T00:23:02.711Z,3.50
2022-08-05T00:26:09.482Z,3.80
2022-08-05T00:29:07.574Z,3.53
2022-08-05T00:32:12.651Z,3.40
2022-08-05T00:35:12.280Z,3.90
2022-08-05T00:37:58.490Z,3.50
2022-08-05T00:40:53.198Z,4.03
2022-08-05T00:43:57.510Z,4.13
2022-08-05T00:47:05.886Z,4.13
2022-08-05T00:50:31.351Z,3.93
2022-08-05T00:53:59.974Z,4.37
2022-08-05T00:56:17.307Z,4.13
2022-08-05T00:59:07.982Z,4.07
2022-08-05T01:02:03.736Z,4.70
2022-08-05T01:04:36.876Z,4.27
2022-08-05T01:07:14.727Z,4.03
2022-08-05T01:10:13.269Z,4.83
2022-08-05T01:13:12.940Z,4.40
2022-08-05T01:16:45.823Z,4.67
2022-08-05T01:20:02.149Z,4.70
2022-08-05T01:23:14.339Z,4.30
2022-08-05T01:26:06.022Z,4.70
2022-08-05T01:28:52.240Z,4.60
2022-08-05T01:31:45.569Z,4.30
2022-08-05T01:34:26.746Z,4.30
2022-08-05T01:37:18.016Z,4.50
2022-08-05T01:43:22.034Z,4.77
2022-08-05T01:46:33.776Z,4.90
2022-08-05T01:49:24.878Z,4.87
2022-08-05T01:52:17.497Z,5.33
2022-08-05T01:54:54.862Z,4.80
2022-08-05T01:58:10.638Z,5.30
2022-08-05T02:01:00.854Z,4.93
2022-08-05T02:03:55.372Z,4.40
2022-08-05T02:06:45.149Z,4.97
2022-08-05T02:12:42.900Z,5.03
2022-08-05T02:15:59.706Z,4.57
2022-08-05T02:19:36.373Z,4.70
2022-08-05T02:25:33.093Z,5.27
2022-08-05T02:29:24.242Z,4.87
2022-08-05T02:31:46.317Z,4.83
2022-08-05T02:35:02.104Z,5.10
2022-08-05T02:41:17.181Z,5.70
2022-08-05T02:44:11.156Z,4.83
2022-08-05T02:47:22.181Z,5.20
2022-08-05T02:50:04.351Z,4.93
2022-08-05T02:53:21.909Z,4.50
2022-08-05T02:56:18.919Z,4.80
2022-08-05T02:59:05.409Z,5.33
2022-08-05T03:01:58.219Z,4.87
2022-08-05T03:04:31.409Z,4.53
2022-08-05T03:07:40.620Z,5.27
2022-08-05T03:10:08.739Z,5.10
2022-08-05T03:12:53.349Z,5.40
2022-08-05T03:15:44.816Z,4.90
2022-08-05T03:18:24.720Z,4.37
2022-08-05T03:21:03.024Z,4.80
2022-08-05T03:23:55.453Z,5.00
2022-08-05T03:26:33.043Z,4.23
2022-08-05T03:29:44.654Z,4.20
2022-08-05T03:32:42.843Z,4.47
2022-08-05T03:35:26.771Z,4.97
2022-08-05T03:38:08.550Z,4.40
2022-08-05T03:40:57.670Z,5.23
2022-08-05T03:44:08.433Z,4.40
2022-08-05T03:46:26.774Z,4.33
2022-08-05T03:49:24.058Z,4.50
2022-08-05T03:52:37.866Z,5.17
2022-08-05T03:56:05.199Z,4.23
2022-08-05T03:58:33.797Z,4.90
2022-08-05T04:04:38.131Z,4.70
2022-08-05T04:07:21.046Z,5.10
2022-08-05T04:10:24.198Z,4.57
2022-08-05T04:13:04.942Z,4.90
2022-08-05T04:15:36.551Z,4.33
2022-08-05T04:18:09.466Z,4.47
2022-08-05T04:21:06.014Z,4.70
2022-08-05T04:24:06.590Z,4.40
2022-08-05T04:26:39.751Z,4.57
2022-08-05T04:29:28.541Z,4.73
2022-08-05T04:31:58.171Z,5.03
2022-08-05T04:34:43.584Z,4.87
2022-08-05T04:38:01.577Z,5.03
2022-08-05T04:40:25.997Z,5.50
2022-08-05T04:42:56.626Z,5.37
2022-08-05T04:45:48.866Z,4.90
2022-08-05T04:58:56.020Z,4.57
2022-08-05T05:02:07.398Z,4.63
2022-08-05T05:07:45.796Z,4.03
2022-08-05T05:11:11.342Z,4.77
2022-08-05T05:14:00.432Z,4.53
2022-08-05T05:16:45.372Z,3.90
2022-08-05T05:22:26.312Z,4.40
2022-08-05T05:28:22.950Z,4.70
2022-08-05T05:30:56.678Z,4.67
2022-08-05T05:33:59.354Z,4.33
2022-08-05T05:36:35.363Z,4.20
2022-08-05T05:39:56.696Z,4.40
2022-08-05T05:43:05.673Z,3.80
2022-08-05T05:45:49.777Z,4.03
2022-08-05T05:48:44.265Z,4.37
2022-08-05T05:51:31.072Z,4.37
2022-08-05T05:54:49.826Z,3.97
2022-08-05T05:57:52.230Z,4.30
2022-08-05T06:00:57.174Z,4.23
2022-08-05T06:04:00.756Z,4.27
2022-08-05T06:07:06.127Z,4.60
2022-08-05T06:10:00.274Z,3.70
2022-08-05T06:12:44.239Z,4.60
2022-08-05T06:16:29.706Z,4.60
2022-08-05T06:18:30.822Z,4.20
2022-08-05T06:21:07.965Z,3.83
2022-08-05T06:24:27.471Z,3.67
2022-08-05T06:28:12.623Z,4.27
2022-08-05T06:30:36.069Z,4.17
2022-08-05T06:33:19.362Z,4.10
2022-08-05T06:36:09.934Z,3.53
2022-08-05T06:39:24.510Z,3.40
2022-08-05T06:42:27.123Z,3.13
2022-08-05T06:45:44.753Z,3.87
2022-08-05T06:48:55.503Z,3.50
2022-08-05T06:51:53.001Z,3.20
2022-08-05T07:01:32.067Z,3.40
2022-08-05T07:04:02.284Z,2.87
2022-08-05T07:20:05.793Z,2.13
2022-08-05T07:22:22.447Z,2.27
2022-08-05T07:26:36.113Z,2.33
2022-08-05T07:32:35.355Z,2.60
2022-08-05T07:40:04.247Z,2.57
2022-08-05T07:46:26.581Z,2.53
2022-08-05T07:55:44.245Z,2.20
2022-08-05T07:58:57.925Z,2.30
2022-08-05T08:09:19.668Z,2.13
2022-08-05T08:12:52.751Z,2.33
2022-08-05T08:15:09.665Z,2.40
2022-08-05T08:17:53.138Z,2.30
2022-08-05T08:21:03.019Z,2.00
2022-08-05T08:31:17.513Z,1.90
2022-08-05T08:34:13.539Z,2.30
2022-08-05T08:37:05.547Z,2.20
2022-08-05T08:40:18.206Z,2.30
2022-08-05T08:46:36.943Z,1.90
2022-08-05T08:50:12.925Z,2.37
2022-08-05T08:52:38.003Z,2.10
2022-08-05T08:56:06.218Z,1.70
2022-08-05T08:59:14.709Z,1.77
2022-08-05T09:02:56.913Z,2.07
2022-08-05T09:14:01.254Z,2.23
2022-08-05T09:32:41.756Z,2.20
2022-08-05T09:46:16.510Z,2.47
2022-08-05T10:00:20.535Z,1.77
2022-08-05T10:10:55.744Z,2.00
2022-08-05T10:17:54.508Z,3.13
2022-08-05T10:24:18.403Z,2.03
2022-08-05T10:35:07.254Z,2.03
2022-08-05T11:12:38.024Z,3.10
2022-08-05T11:26:58.898Z,2.60
2022-08-05T11:30:03.447Z,2.33
2022-08-05T12:18:58.141Z,1.73
2022-08-05T12:25:28.544Z,2.03
2022-08-05T13:07:10.463Z,2.50
2022-08-05T13:10:28.809Z,2.28
2022-08-05T13:14:06.427Z,2.83
2022-08-05T13:16:29.638Z,2.40
2022-08-05T13:19:40.272Z,2.88
2022-08-05T13:26:11.864Z,2.25
2022-08-05T13:28:49.221Z,2.30
2022-08-05T13:32:04.570Z,2.03
2022-08-05T13:34:37.909Z,2.40
2022-08-05T13:37:34.786Z,2.50
2022-08-05T13:41:18.500Z,2.25
2022-08-05T13:44:10.117Z,1.80
2022-08-05T13:49:48.793Z,2.00
2022-08-05T13:52:41.967Z,2.17
2022-08-05T13:55:41.880Z,2.10
2022-08-05T13:58:34.714Z,1.80
2022-08-05T14:02:19.931Z,2.17
2022-08-05T14:04:19.463Z,2.03
2022-08-05T14:10:37.449Z,2.23
2022-08-05T14:13:18.735Z,2.40
2022-08-05T14:16:30.310Z,2.17
2022-08-05T14:19:04.275Z,1.90
2022-08-05T14:22:17.052Z,1.93
2022-08-05T14:24:57.985Z,1.70
2022-08-05T14:28:26.163Z,1.77
2022-08-05T14:30:58.457Z,2.07
2022-08-05T14:36:58.927Z,2.00
2022-08-05T14:39:49.907Z,2.50
2022-08-05T14:46:37.133Z,2.50
2022-08-05T14:49:23.115Z,2.53
2022-08-05T14:52:52.440Z,2.60
2022-08-05T14:55:39.506Z,2.50
2022-08-05T15:01:48.509Z,2.90
2022-08-05T15:04:35.255Z,2.93
2022-08-05T15:10:29.932Z,3.30
2022-08-05T15:13:18.380Z,3.00
2022-08-05T15:16:29.757Z,3.77
2022-08-05T15:19:24.168Z,3.23
2022-08-05T15:22:36.760Z,3.20
2022-08-05T15:25:41.032Z,3.00
2022-08-05T15:31:34.500Z,3.20
2022-08-05T15:34:32.009Z,3.37
2022-08-05T15:38:34.491Z,3.40
2022-08-05T15:41:00.214Z,3.90
2022-08-05T15:46:38.483Z,3.60
2022-08-05T15:49:27.279Z,3.77
2022-08-05T15:58:35.752Z,3.63
2022-08-05T16:04:43.041Z,3.47
2022-08-05T16:22:52.559Z,3.70
2022-08-05T16:29:37.484Z,4.10
2022-08-05T16:32:47.783Z,3.93
2022-08-05T16:35:53.044Z,3.80
2022-08-05T16:38:39.692Z,3.97
2022-08-05T16:42:46.809Z,3.83
2022-08-05T16:49:07.353Z,3.93
2022-08-05T16:52:16.999Z,4.40
2022-08-05T16:54:52.010Z,4.63
2022-08-05T16:57:50.447Z,4.90
2022-08-05T17:00:34.559Z,4.40
2022-08-05T17:03:23.327Z,4.43
2022-08-05T17:06:53.489Z,3.83
2022-08-05T17:10:21.396Z,3.73
2022-08-05T17:13:16.671Z,3.53
2022-08-05T17:19:31.647Z,3.50
2022-08-05T17:22:11.170Z,3.20
2022-08-05T17:25:34.002Z,3.40
2022-08-05T17:36:34.040Z,2.13
2022-08-05T17:44:38.975Z,1.63
2022-08-05T17:47:54.580Z,1.40
2022-08-05T18:02:23.029Z,1.17
2022-08-05T18:06:01.546Z,1.13
2022-08-05T18:16:52.194Z,0.70
2022-08-05T18:21:13.255Z,0.70
2022-08-05T23:05:24.349Z,1.93
2022-08-05T23:22:48.745Z,1.83
2022-08-05T23:26:10.733Z,1.53
2022-08-05T23:30:12.968Z,1.40
2022-08-05T23:34:03.304Z,1.47
2022-08-05T23:36:19.362Z,1.30
2022-08-05T23:39:17.471Z,1.30
2022-08-05T23:42:47.488Z,1.30
2022-08-05T23:45:55.169Z,1.30
2022-08-05T23:55:21.858Z,1.00
